createdAt,value
2022-12-01T00:02:30.980Z,14.70
2022-12-01T00:05:02.794Z,15.00
2022-12-01T00:07:34.592Z,15.63
2022-12-01T00:10:25.690Z,15.57
2022-12-01T00:12:59.857Z,17.17
2022-12-01T00:15:36.845Z,16.53
2022-12-01T00:18:10.263Z,15.97
2022-12-01T00:20:41.954Z,18.30
2022-12-01T00:23:13.670Z,17.90
2022-12-01T00:25:45.477Z,18.00
2022-12-01T00:28:17.213Z,16.87
2022-12-01T00:30:49.349Z,19.00
2022-12-01T00:33:21.014Z,17.00
2022-12-01T00:36:01.300Z,17.60
2022-12-01T00:38:33.923Z,16.33
2022-12-01T00:41:06.246Z,15.10
2022-12-01T00:43:37.936Z,17.53
2022-12-01T00:46:09.788Z,16.87
2022-12-01T00:48:41.658Z,18.20
2022-12-01T00:51:13.497Z,18.53
2022-12-01T00:53:45.978Z,18.20
2022-12-01T00:56:17.823Z,17.93
2022-12-01T00:58:49.555Z,17.17
2022-12-01T01:01:21.376Z,19.33
2022-12-01T01:03:53.138Z,17.97
2022-12-01T01:06:24.960Z,20.40
2022-12-01T01:08:56.771Z,17.33
2022-12-01T01:11:28.481Z,19.27
2022-12-01T01:14:00.692Z,18.23
2022-12-01T01:16:32.942Z,19.57
2022-12-01T01:19:04.841Z,17.30
2022-12-01T01:21:36.691Z,18.27
2022-12-01T01:24:08.548Z,19.27
2022-12-01T01:26:40.359Z,18.77
2022-12-01T01:29:12.091Z,19.60
2022-12-01T01:31:43.766Z,18.37
2022-12-01T01:34:15.518Z,18.97
2022-12-01T01:36:47.260Z,18.87
2022-12-01T01:39:19.138Z,18.10
2022-12-01T01:41:50.837Z,17.63
2022-12-01T01:45:00.976Z,20.67
2022-12-01T01:47:36.868Z,17.57
2022-12-01T01:50:12.295Z,20.03
2022-12-01T01:52:48.259Z,19.17
2022-12-01T01:55:20.151Z,18.27
2022-12-01T01:57:52.018Z,17.67
2022-12-01T02:00:24.082Z,19.20
2022-12-01T02:02:57.943Z,18.93
2022-12-01T02:05:33.602Z,20.07
2022-12-01T02:08:06.162Z,20.80
2022-12-01T02:10:44.035Z,20.08
2022-12-01T02:13:34.587Z,17.70
2022-12-01T02:16:36.633Z,18.93
2022-12-01T02:19:41.138Z,17.53
2022-12-01T02:22:32.036Z,18.87
2022-12-01T02:25:39.609Z,18.60
2022-12-01T02:28:26.259Z,17.20
2022-12-01T02:31:24.293Z,18.97
2022-12-01T02:34:13.916Z,19.20
2022-12-01T02:37:05.565Z,17.77
2022-12-01T02:40:06.244Z,17.97
2022-12-01T02:42:50.662Z,16.50
2022-12-01T02:45:31.299Z,17.50
2022-12-01T02:48:08.732Z,17.90
2022-12-01T02:50:41.712Z,18.63
2022-12-01T02:53:17.315Z,18.90
2022-12-01T02:55:54.509Z,18.13
2022-12-01T02:58:26.375Z,18.47
2022-12-01T03:01:18.175Z,17.67
2022-12-01T03:03:56.051Z,18.17
2022-12-01T03:06:51.537Z,19.00
2022-12-01T03:10:07.140Z,16.40
2022-12-01T03:13:08.006Z,19.70
2022-12-01T03:15:58.260Z,17.07
2022-12-01T03:18:36.818Z,18.20
2022-12-01T03:21:14.139Z,18.23
2022-12-01T03:23:54.906Z,17.10
2022-12-01T03:26:31.099Z,19.20
2022-12-01T03:29:08.230Z,19.77
2022-12-01T03:31:47.182Z,17.87
2022-12-01T03:34:39.191Z,18.03
2022-12-01T03:37:36.606Z,17.90
2022-12-01T03:40:12.032Z,19.10
2022-12-01T03:43:09.858Z,16.60
2022-12-01T03:46:12.485Z,17.33
2022-12-01T03:48:45.081Z,17.43
2022-12-01T03:51:44.224Z,16.70
2022-12-01T03:54:41.046Z,18.20
2022-12-01T03:57:17.979Z,18.37
2022-12-01T03:59:50.160Z,17.23
2022-12-01T04:02:25.436Z,20.20
2022-12-01T04:04:57.273Z,17.83
2022-12-01T04:07:29.047Z,18.77
2022-12-01T04:10:00.797Z,18.00
2022-12-01T04:12:33.215Z,17.70
2022-12-01T04:15:12.487Z,17.73
2022-12-01T04:17:45.031Z,17.83
2022-12-01T04:20:17.827Z,19.97
2022-12-01T04:22:49.598Z,18.03
2022-12-01T04:25:21.294Z,18.00
2022-12-01T04:27:53.024Z,19.43
2022-12-01T04:30:24.805Z,19.90
2022-12-01T04:32:57.886Z,17.43
2022-12-01T04:35:29.571Z,18.10
2022-12-01T04:38:01.312Z,17.47
2022-12-01T04:40:33.006Z,17.40
2022-12-01T04:43:04.802Z,16.73
2022-12-01T04:45:38.398Z,19.30
2022-12-01T04:48:10.122Z,18.93
2022-12-01T04:50:41.978Z,18.40
2022-12-01T04:53:13.650Z,17.40
2022-12-01T04:55:45.555Z,19.53
2022-12-01T04:58:17.233Z,18.13
2022-12-01T05:00:48.982Z,18.03
2022-12-01T05:03:20.713Z,18.13
2022-12-01T05:06:02.461Z,17.60
2022-12-01T05:08:34.357Z,18.10
2022-12-01T05:11:07.874Z,18.03
2022-12-01T05:13:41.965Z,17.70
2022-12-01T05:16:14.867Z,17.83
2022-12-01T05:18:51.076Z,19.38
2022-12-01T05:21:22.793Z,16.20
2022-12-01T05:23:54.442Z,18.07
2022-12-01T05:26:26.292Z,17.73
2022-12-01T05:28:58.072Z,18.33
2022-12-01T05:31:30.370Z,17.57
2022-12-01T05:34:02.681Z,18.53
2022-12-01T05:36:34.707Z,17.70
2022-12-01T05:39:06.455Z,16.93
2022-12-01T05:41:38.151Z,17.77
2022-12-01T05:44:09.869Z,16.87
2022-12-01T05:46:41.602Z,16.57
2022-12-01T05:49:13.374Z,17.47
2022-12-01T05:51:45.123Z,17.20
2022-12-01T05:54:16.881Z,19.33
2022-12-01T05:56:48.664Z,18.37
2022-12-01T05:59:20.291Z,19.03
2022-12-01T06:01:52.039Z,16.67
2022-12-01T06:04:24.449Z,17.07
2022-12-01T06:06:56.224Z,16.37
2022-12-01T06:09:27.974Z,17.83
2022-12-01T06:11:59.629Z,19.85
2022-12-01T06:14:31.556Z,19.27
2022-12-01T06:17:03.566Z,16.93
2022-12-01T06:19:35.452Z,17.90
2022-12-01T06:22:07.185Z,17.90
2022-12-01T06:24:39.008Z,20.57
2022-12-01T06:27:10.840Z,18.20
2022-12-01T06:29:42.562Z,19.30
2022-12-01T06:32:14.377Z,18.57
2022-12-01T06:34:46.057Z,19.73
2022-12-01T06:37:17.695Z,19.37
2022-12-01T06:39:49.543Z,19.07
2022-12-01T06:42:21.484Z,20.93
2022-12-01T06:44:53.299Z,19.63
2022-12-01T06:47:24.961Z,20.50
2022-12-01T06:49:56.825Z,19.07
2022-12-01T06:52:28.654Z,18.13
2022-12-01T06:55:00.558Z,19.70
2022-12-01T06:57:32.613Z,18.90
2022-12-01T07:00:05.368Z,19.27
2022-12-01T07:02:39.004Z,20.20
2022-12-01T07:05:11.001Z,20.83
2022-12-01T07:07:43.125Z,18.47
2022-12-01T07:10:15.061Z,22.70
2022-12-01T07:12:46.806Z,20.17
2022-12-01T07:15:18.617Z,21.03
2022-12-01T07:17:50.740Z,22.33
2022-12-01T07:20:22.462Z,20.80
2022-12-01T07:22:54.486Z,21.53
2022-12-01T07:25:26.153Z,20.97
2022-12-01T07:27:57.817Z,20.13
2022-12-01T07:30:29.868Z,23.05
2022-12-01T07:33:01.752Z,20.77
2022-12-01T07:35:33.526Z,23.27
2022-12-01T07:38:05.377Z,24.07
2022-12-01T07:40:37.155Z,22.47
2022-12-01T07:43:08.861Z,21.10
2022-12-01T07:45:40.919Z,22.83
2022-12-01T07:48:12.736Z,23.13
2022-12-01T07:50:44.522Z,23.07
2022-12-01T07:53:16.258Z,21.53
2022-12-01T07:55:49.389Z,20.93
2022-12-01T07:58:21.129Z,20.80
2022-12-01T08:00:53.271Z,22.80
2022-12-01T08:03:25.071Z,23.27
2022-12-01T08:06:01.016Z,21.60
2022-12-01T08:08:34.520Z,20.40
2022-12-01T08:11:11.241Z,22.03
2022-12-01T08:13:43.622Z,27.90
2022-12-01T08:16:19.132Z,23.00
2022-12-01T08:18:51.399Z,23.33
2022-12-01T08:21:24.231Z,23.50
2022-12-01T08:23:57.184Z,22.07
2022-12-01T08:26:28.865Z,26.50
2022-12-01T08:29:01.003Z,23.00
2022-12-01T08:31:35.792Z,22.70
2022-12-01T08:34:08.190Z,22.27
2022-12-01T08:36:39.921Z,20.57
2022-12-01T08:39:11.691Z,23.37
2022-12-01T08:41:43.506Z,22.27
2022-12-01T08:44:15.373Z,23.03
2022-12-01T08:46:47.179Z,20.80
2022-12-01T08:49:18.878Z,23.30
2022-12-01T08:51:50.603Z,21.80
2022-12-01T08:54:22.989Z,20.57
2022-12-01T08:56:54.746Z,21.03
2022-12-01T08:59:26.718Z,24.17
2022-12-01T09:02:01.329Z,22.10
2022-12-01T09:04:35.499Z,22.63
2022-12-01T09:07:10.713Z,23.37
2022-12-01T09:09:43.996Z,21.93
2022-12-01T09:12:15.999Z,21.80
2022-12-01T09:14:49.658Z,22.77
2022-12-01T09:17:21.564Z,26.58
2022-12-01T09:19:53.341Z,23.73
2022-12-01T09:22:25.139Z,23.73
2022-12-01T09:24:56.845Z,24.33
2022-12-01T09:27:28.608Z,23.60
2022-12-01T09:30:00.367Z,22.20
2022-12-01T09:32:32.152Z,20.03
2022-12-01T09:35:03.997Z,22.10
2022-12-01T09:37:35.773Z,24.63
2022-12-01T09:40:10.449Z,20.67
2022-12-01T09:42:46.342Z,20.00
2022-12-01T09:45:28.035Z,22.53
2022-12-01T09:48:03.627Z,21.80
2022-12-01T09:50:36.049Z,20.73
2022-12-01T09:53:15.699Z,20.13
2022-12-01T09:55:48.764Z,20.53
2022-12-01T09:58:26.301Z,20.43
2022-12-01T10:00:58.391Z,21.70
2022-12-01T10:03:35.910Z,21.20
2022-12-01T10:06:32.047Z,21.40
2022-12-01T10:09:19.394Z,20.87
2022-12-01T10:11:55.358Z,20.20
2022-12-01T10:14:36.827Z,23.47
2022-12-01T10:17:26.894Z,20.73
2022-12-01T10:20:11.747Z,21.50
2022-12-01T10:22:49.583Z,22.00
2022-12-01T10:25:24.315Z,22.03
2022-12-01T10:28:02.263Z,23.37
2022-12-01T10:30:41.178Z,23.17
2022-12-01T10:33:37.995Z,24.83
2022-12-01T10:36:10.616Z,22.13
2022-12-01T10:38:42.355Z,22.67
2022-12-01T10:41:15.214Z,22.63
2022-12-01T10:43:50.971Z,22.80
2022-12-01T10:46:44.688Z,21.80
2022-12-01T10:49:18.177Z,22.07
2022-12-01T10:51:58.029Z,22.40
2022-12-01T10:54:39.080Z,20.73
2022-12-01T10:57:17.581Z,21.90
2022-12-01T10:59:55.447Z,22.77
2022-12-01T11:02:30.876Z,23.47
2022-12-01T11:05:06.671Z,23.00
2022-12-01T11:07:47.452Z,24.00
2022-12-01T11:10:19.305Z,20.07
2022-12-01T11:12:57.602Z,22.43
2022-12-01T11:15:32.325Z,21.90
2022-12-01T11:18:07.932Z,22.97
2022-12-01T11:20:40.987Z,21.27
2022-12-01T11:23:26.297Z,24.30
2022-12-01T11:26:13.338Z,23.20
2022-12-01T11:29:27.541Z,23.20
2022-12-01T11:31:59.932Z,24.50
2022-12-01T11:34:34.827Z,23.30
2022-12-01T11:37:09.429Z,21.27
2022-12-01T11:39:43.891Z,20.90
2022-12-01T11:42:26.421Z,21.13
2022-12-01T11:45:03.490Z,21.87
2022-12-01T11:47:35.288Z,21.37
2022-12-01T11:50:27.058Z,21.80
2022-12-01T11:52:59.107Z,20.37
2022-12-01T11:55:31.955Z,21.83
2022-12-01T11:58:04.634Z,23.67
2022-12-01T12:00:56.029Z,23.50
2022-12-01T12:03:44.047Z,21.90
2022-12-01T12:09:26.534Z,22.03
2022-12-01T12:12:14.883Z,22.80
2022-12-01T12:15:25.669Z,20.43
2022-12-01T12:18:12.694Z,22.03
2022-12-01T12:20:47.282Z,18.43
2022-12-01T12:23:34.354Z,22.40
2022-12-01T12:26:28.038Z,20.20
2022-12-01T12:29:18.319Z,22.80
2022-12-01T12:32:07.966Z,21.23
2022-12-01T12:35:04.465Z,21.10
2022-12-01T12:37:54.644Z,21.30
2022-12-01T12:41:20.647Z,21.50
2022-12-01T12:44:10.856Z,20.60
2022-12-01T12:47:00.315Z,21.40
2022-12-01T12:49:36.993Z,21.10
2022-12-01T12:52:12.980Z,21.50
2022-12-01T12:55:02.994Z,20.33
2022-12-01T12:57:49.278Z,21.43
2022-12-01T13:00:23.514Z,21.10
2022-12-01T13:03:15.114Z,20.03
2022-12-01T13:05:58.069Z,19.60
2022-12-01T13:08:44.427Z,18.80
2022-12-01T13:11:51.484Z,18.40
2022-12-01T13:14:29.611Z,20.23
2022-12-01T13:17:23.453Z,21.67
2022-12-01T13:19:55.165Z,19.60
2022-12-01T13:22:32.813Z,19.03
2022-12-01T13:25:05.237Z,18.67
2022-12-01T13:27:40.186Z,20.20
2022-12-01T13:30:26.675Z,18.57
2022-12-01T13:33:04.121Z,18.87
2022-12-01T13:35:38.447Z,19.40
2022-12-01T13:38:30.333Z,20.13
2022-12-01T13:41:26.465Z,19.17
2022-12-01T13:44:03.229Z,21.48
2022-12-01T13:46:43.832Z,20.57
2022-12-01T13:49:42.647Z,20.90
2022-12-01T13:52:23.163Z,20.57
2022-12-01T13:55:08.700Z,21.43
2022-12-01T13:58:13.121Z,19.33
2022-12-01T14:00:45.405Z,18.17
2022-12-01T14:03:17.286Z,19.17
2022-12-01T14:06:05.509Z,19.67
2022-12-01T14:08:48.974Z,19.00
2022-12-01T14:11:24.718Z,17.40
2022-12-01T14:14:12.554Z,18.80
2022-12-01T14:16:53.657Z,19.00
2022-12-01T14:19:36.588Z,17.03
2022-12-01T14:22:39.070Z,19.57
2022-12-01T14:25:26.990Z,19.67
2022-12-01T14:28:03.143Z,20.13
2022-12-01T14:30:41.020Z,17.87
2022-12-01T14:34:06.988Z,18.67
2022-12-01T14:37:02.405Z,18.33
2022-12-01T14:39:40.618Z,18.00
2022-12-01T14:42:41.456Z,20.33
2022-12-01T14:45:18.616Z,18.10
2022-12-01T14:47:59.717Z,19.03
2022-12-01T14:50:46.215Z,18.33
2022-12-01T14:53:27.108Z,22.90
2022-12-01T14:56:13.162Z,17.37
2022-12-01T14:58:54.243Z,19.83
2022-12-01T15:01:33.944Z,18.57
2022-12-01T15:04:06.604Z,18.93
2022-12-01T15:06:38.354Z,17.87
2022-12-01T15:09:35.445Z,18.73
2022-12-01T15:12:26.237Z,19.43
2022-12-01T15:14:58.047Z,20.10
2022-12-01T15:17:32.169Z,18.77
2022-12-01T15:20:05.464Z,17.43
2022-12-01T15:22:40.460Z,19.93
2022-12-01T15:25:14.854Z,19.07
2022-12-01T15:27:48.551Z,18.77
2022-12-01T15:30:20.332Z,18.85
2022-12-01T15:32:52.199Z,18.17
2022-12-01T15:35:24.360Z,18.67
2022-12-01T15:37:57.123Z,19.60
2022-12-01T15:43:37.521Z,19.10
2022-12-01T15:46:18.424Z,18.33
2022-12-01T15:49:14.921Z,17.43
2022-12-01T15:51:50.859Z,18.53
2022-12-01T15:54:27.253Z,19.37
2022-12-01T15:56:59.854Z,17.43
2022-12-01T15:59:35.192Z,18.30
2022-12-01T16:02:31.842Z,18.47
2022-12-01T16:05:09.655Z,20.13
2022-12-01T16:08:11.943Z,21.40
2022-12-01T16:10:35.790Z,18.40
2022-12-01T16:13:41.229Z,18.00
2022-12-01T16:16:34.643Z,17.27
2022-12-01T16:19:09.265Z,19.43
2022-12-01T16:21:53.024Z,19.40
2022-12-01T16:24:54.246Z,19.13
2022-12-01T16:27:28.087Z,17.37
2022-12-01T16:30:03.357Z,20.60
2022-12-01T16:32:42.614Z,16.93
2022-12-01T16:35:23.495Z,19.42
2022-12-01T16:37:55.423Z,18.73
2022-12-01T16:40:27.403Z,18.37
2022-12-01T16:42:59.170Z,19.30
2022-12-01T16:45:31.017Z,21.37
2022-12-01T16:48:09.021Z,19.30
2022-12-01T16:50:41.172Z,17.10
2022-12-01T16:53:14.041Z,19.00
2022-12-01T16:55:56.753Z,20.70
2022-12-01T16:58:28.613Z,19.57
2022-12-01T17:01:00.438Z,18.47
2022-12-01T17:03:32.524Z,20.33
2022-12-01T17:06:05.226Z,19.53
2022-12-01T17:08:36.950Z,20.67
2022-12-01T17:11:08.929Z,22.67
2022-12-01T17:13:40.882Z,19.80
2022-12-01T17:16:17.963Z,20.20
2022-12-01T17:18:50.340Z,21.48
2022-12-01T17:21:22.175Z,20.53
2022-12-01T17:23:53.933Z,22.23
2022-12-01T17:26:25.726Z,21.97
2022-12-01T17:28:57.405Z,20.10
2022-12-01T17:31:29.191Z,21.20
2022-12-01T17:34:00.941Z,21.57
2022-12-01T17:36:32.646Z,20.37
2022-12-01T17:39:04.421Z,21.00
2022-12-01T17:41:36.268Z,19.20
2022-12-01T17:44:08.085Z,23.20
2022-12-01T17:46:41.787Z,20.97
2022-12-01T17:49:13.755Z,21.50
2022-12-01T17:51:45.508Z,23.30
2022-12-01T17:54:17.163Z,21.83
2022-12-01T17:56:48.856Z,20.90
2022-12-01T17:59:20.550Z,23.47
2022-12-01T18:01:52.377Z,20.93
2022-12-01T18:04:24.208Z,18.67
2022-12-01T18:06:55.958Z,20.53
2022-12-01T18:09:27.924Z,23.43
2022-12-01T18:12:00.109Z,23.52
2022-12-01T18:14:33.610Z,22.50
2022-12-01T18:17:05.822Z,21.30
2022-12-01T18:19:37.537Z,21.20
2022-12-01T18:22:09.325Z,22.23
2022-12-01T18:24:41.150Z,21.97
2022-12-01T18:27:12.865Z,23.70
2022-12-01T18:29:44.722Z,20.50
2022-12-01T18:32:16.932Z,20.20
2022-12-01T18:34:49.006Z,22.00
2022-12-01T18:37:20.981Z,25.35
2022-12-01T18:39:55.282Z,23.47
2022-12-01T18:42:27.173Z,41.67
2022-12-01T18:44:58.906Z,35.87
2022-12-01T18:47:31.686Z,28.80
2022-12-01T18:50:04.203Z,25.80
2022-12-01T18:52:37.093Z,25.70
2022-12-01T18:55:09.252Z,22.60
2022-12-01T18:57:40.928Z,22.77
2022-12-01T19:00:13.265Z,22.00
2022-12-01T19:02:45.663Z,22.90
2022-12-01T19:05:17.551Z,21.83
2022-12-01T19:07:49.358Z,20.57
2022-12-01T19:10:21.390Z,19.83
2022-12-01T19:12:53.061Z,20.83
2022-12-01T19:15:24.831Z,18.87
2022-12-01T19:17:56.592Z,22.27
2022-12-01T19:20:28.309Z,22.27
2022-12-01T19:23:00.094Z,20.43
2022-12-01T19:25:31.922Z,21.13
2022-12-01T19:28:03.907Z,22.57
2022-12-01T19:30:35.624Z,23.63
2022-12-01T19:33:07.290Z,19.67
2022-12-01T19:35:39.085Z,22.88
2022-12-01T19:38:10.806Z,23.02
2022-12-01T19:40:42.624Z,21.07
2022-12-01T19:43:14.325Z,22.57
2022-12-01T19:45:46.123Z,20.00
2022-12-01T19:48:17.877Z,23.63
2022-12-01T19:50:49.683Z,23.47
2022-12-01T19:53:21.395Z,20.10
2022-12-01T19:55:53.212Z,21.17
2022-12-01T19:58:25.511Z,21.80
2022-12-01T20:01:12.759Z,23.40
2022-12-01T20:03:49.876Z,24.10
2022-12-01T20:06:29.919Z,23.03
2022-12-01T20:09:04.825Z,22.10
2022-12-01T20:11:36.903Z,21.27
2022-12-01T20:14:09.945Z,21.20
2022-12-01T20:16:42.002Z,19.97
2022-12-01T20:19:13.705Z,22.20
2022-12-01T20:21:45.409Z,21.77
2022-12-01T20:24:22.123Z,24.10
2022-12-01T20:26:57.001Z,21.10
2022-12-01T20:29:29.502Z,23.70
2022-12-01T20:32:03.073Z,20.80
2022-12-01T20:34:36.349Z,25.48
2022-12-01T20:37:08.109Z,23.53
2022-12-01T20:39:41.356Z,23.00
2022-12-01T20:42:13.157Z,21.47
2022-12-01T20:44:45.095Z,23.17
2022-12-01T20:47:18.811Z,22.73
2022-12-01T20:49:55.442Z,20.83
2022-12-01T20:52:29.835Z,20.30
2022-12-01T20:55:01.589Z,23.85
2022-12-01T20:57:33.391Z,25.13
2022-12-01T21:00:06.048Z,24.00
2022-12-01T21:02:37.856Z,23.00
2022-12-01T21:05:09.919Z,23.43
2022-12-01T21:07:41.642Z,23.87
2022-12-01T21:10:18.493Z,22.10
2022-12-01T21:13:16.809Z,23.50
2022-12-01T21:16:00.044Z,23.67
2022-12-01T21:18:47.929Z,23.97
2022-12-01T21:21:26.393Z,22.60
2022-12-01T21:24:18.704Z,26.30
2022-12-01T21:26:59.955Z,25.60
2022-12-01T21:29:40.169Z,24.17
2022-12-01T21:32:15.598Z,22.20
2022-12-01T21:34:47.973Z,22.17
2022-12-01T21:37:22.685Z,23.53
2022-12-01T21:39:56.703Z,23.57
2022-12-01T21:42:31.727Z,22.37
2022-12-01T21:45:14.809Z,23.10
2022-12-01T21:47:47.099Z,25.27
2022-12-01T21:50:27.186Z,24.30
2022-12-01T21:52:59.133Z,24.43
2022-12-01T21:55:33.383Z,22.27
2022-12-01T21:58:22.680Z,24.27
2022-12-01T22:00:56.631Z,24.43
2022-12-01T22:03:43.523Z,23.47
2022-12-01T22:06:30.190Z,25.30
2022-12-01T22:09:19.625Z,22.33
2022-12-01T22:11:54.534Z,22.27
2022-12-01T22:14:34.259Z,23.10
2022-12-01T22:17:05.885Z,21.80
2022-12-01T22:19:44.547Z,22.40
2022-12-01T22:22:28.396Z,23.43
2022-12-01T22:25:15.266Z,21.40
2022-12-01T22:27:46.989Z,22.17
2022-12-01T22:30:23.046Z,22.57
2022-12-01T22:33:05.204Z,22.00
2022-12-01T22:35:48.181Z,22.00
2022-12-01T22:38:35.813Z,20.60
2022-12-01T22:41:16.182Z,24.23
2022-12-01T22:43:59.633Z,21.73
2022-12-01T22:46:32.417Z,23.02
2022-12-01T22:49:10.276Z,25.65
2022-12-01T22:52:21.738Z,25.63
2022-12-01T22:54:53.745Z,23.00
2022-12-01T22:57:33.072Z,23.87
2022-12-01T23:00:17.722Z,22.80
2022-12-01T23:02:51.070Z,24.10
2022-12-01T23:05:30.675Z,23.17
2022-12-01T23:08:08.500Z,24.80
2022-12-01T23:10:41.282Z,23.67
2022-12-01T23:13:14.344Z,24.57
2022-12-01T23:15:48.175Z,24.50
2022-12-01T23:18:28.983Z,27.30
2022-12-01T23:21:01.707Z,26.37
2022-12-01T23:23:36.312Z,25.33
2022-12-01T23:26:08.950Z,23.70
2022-12-01T23:28:41.351Z,24.47
2022-12-01T23:31:13.082Z,24.13
2022-12-01T23:33:44.829Z,23.70
2022-12-01T23:36:28.450Z,23.73
2022-12-01T23:39:06.983Z,24.70
2022-12-01T23:41:45.217Z,24.97
2022-12-01T23:44:16.891Z,26.33
2022-12-01T23:46:54.950Z,24.47
2022-12-01T23:49:31.263Z,25.43
2022-12-01T23:52:04.015Z,27.93
2022-12-01T23:54:38.547Z,25.10
2022-12-01T23:57:23.204Z,27.40
2022-12-01T23:59:59.706Z,24.97
